Relevés horaires St-Hubert (Belgique)


Relevés horaires à St-Hubert - Samedi 21 Avr. 2018
Heure UTC1 Température [°C] Vent [km/h] Hum. [%] Pres.4 [hPa] Visi. [Km] Nébu. [octa] Préc.5 [mm] Cond.
2m. Res. Ros. Dir.2 Vit. Moy. Raf.3
23:00 15.0 14.7 8.1 E 9.3 9.3 13.0 63 1017.1(-0.9/3h) 11 0/8 -- --
22:00 14.9 14.9 9.2 E 7.4 9.3 13.0 69 1017.7(-0.5/3h) 11 0/8 -- --
21:00 14.9 14.9 10.1 ENE 7.4 9.3 13.0 73 1018.1(0.0/3h) 12 0/8 -- --
20:00 14.7 14.6 10.2 ENE 7.4 7.4 11.1 74 1018.1(-0.3/3h) 11 0/8 -- --
19:00 17.0 17.0 9.8 NNE 5.6 9.3 11.1 63 1017.7(-0.5/3h) 12 0/8 -- --
18:00 19.0 19.0 10.5 N 9.3 9.3 64.8 58 1017.2(-1.0/3h) 10 0/8 0/12h
--
17:00 20.7 20.7 11.0 NNE 7.4 9.3 13.0 54 1017(-1.3/3h) 10 0/8 -- --
16:00 21.7 21.7 10.3 N 7.4 7.4 11.1 48 1017.2(-1.6/3h) 22 0/8 -- --
15:00 22.5 22.5 10.8 N 5.6 7.4 64.8 48 1017.5(-1.6/3h) 21 0/8 -- --
14:00 22.3 22.3 10.2 NE 5.6 5.6 57.4 46 1018.1(-1.6/3h) 25 0/8 -- --
13:00 21.1 21.1 9.6 NNO 1.9 3.7 64.8 48 1019(-1.4/3h) 23 0/8 -- --
12:00 20.5 20.5 8.4 NNO 1.9 5.6 7.4 46 1019.7(-1.1/3h) 19 0/8 0/6h
--
11:00 20.5 20.5 8.5 NNO 3.7 5.6 7.4 46 1020.3(-0.4/3h) 26 0/8 -- --
10:00 20.1 20.1 7.6 E 5.6 5.6 7.4 44 1020.8(0.1/3h) 30 0/8 -- --
09:00 19.3 19.3 8.0 NE 3.7 5.6 7.4 48 1021.2(0.3/3h) 19 0/8 -- --
08:00 18.2 18.2 9.6 NNE 3.7 5.6 7.4 57 1021.2(0.6/3h) 19 0/8 -- --
07:00 16.0 16.0 9.4 NE 5.6 5.6 7.4 65 1021.6(0.7/3h) 15 0/8 -- --
06:00 14.2 14.2 10.4 NNE 3.7 7.4 9.3 78 1021.9(0.3/3h) 15 0/8 0/12h
--
05:00 12.9 12.9 8.0 NE 5.6 5.6 7.4 72 1021.8(-0.5/3h) 17 0/8 -- --
04:00 13.3 13.3 7.3 NE 5.6 7.4 7.4 67 1021.5(-0.9/3h) 17 0/8 -- --
03:00 14.6 14.6 7.2 NE 5.6 7.4 9.3 61 1021.6(-0.9/3h) 21 0/8 -- --
02:00 14.4 14.4 7.1 NE 5.6 5.6 7.4 61 1022(-0.9/3h) 22 0/8 -- --
01:00 14.7 14.7 8.1 NE 5.6 7.4 9.3 65 1022.2(-0.7/3h) 22 0/8 -- --
00:00 15.0 15 8.7 NE 7.4 7.4 63.0 66 1022.4(-0.2/3h) 18 0/8 0/6h
0/24h
--

1 Coordinated Universal Time. Actuellement il est 13:00 locale et 11:00 UTC.

2 Le vent souffle depuis la direction indiquée vers la direction oposée.

3 Les rafales max. sont disponible 40 min après l'heure du relevé.

4 Pour les stations d'altitude (plus de 600m) le géopotentiel du niveau le plus proche de la pression obligatoire est indiqué.

5 Les stations disposant d'un diffuseur peuvent indiquer "trace". Cela signifie que des précipitations ont touchés le sol mais que la quantité est inférieure à 0.1 mm.

Récapitulatif de la journée
Température [°C] Vent [km/h] Ensoleillement4 [h] Precipitations totale5 [mm] Pression [Hpa]
Min1 Max.2 Moy.3 Max. Min Max.
12.2 22.8 7 64.8 0 h 0 min 0 1017.0 1022.4

1 Température minimale relevée entre 18:00 UTC la veille et 18:00 UTC le jour donné.

2 Température maximale relevée entre 06:00 UTC le jour donné et 06:00 UTC le lendemain.

3 Vent moyen de la journée basé sur les relevés horaires.

4 Ensoleillement en heures relevé entre 06:00 UTC la veille et 06:00 UTC le jour donné.

5 Précipitations totales tombées entre 06:00 UTC la jour donné et 06:00 UTC le lendemain.

Graphiques horaires